Anthony, New Mexico
Current Conditions -  °F | °C
As of 1:58 PM on Tuesday 27 Jan 2015 (Local Time) from KBIF Reporting Station
Few Clouds Few Clouds  
Wind Chill: 64°   Ceiling: Unl
Heat Index: 64°   Visibility: 10mi
Dew Point: 38°   Wind: 6mph
Humidity: 38%   Direction: 180°S
Pressure: 30.24"   Gusts: NA
Location:  32°N, 106.6°W
Report Text: KBIF 272058Z 18005KT 10SM FEW250 18/03 A3024 RMK AO2A SLP208 T01780031 57028 $
Loading
Personal Weather Stations






























Interactive Weather Map New forecast layout! Learn more

10-Day Weather Forecast

Advertisements
Track Severe Weather on mobile